Palmer, Iowa
Current Conditions -  °F | °C
As of 7:15 AM on Thursday 30 Oct 2014 (Local Time) from KFOD Reporting Station
Broken Clouds Broken Clouds  
Wind Chill: 37°   Ceiling: 8500
Heat Index: 37°   Visibility: 10mi
Dew Point: 34°   Wind: 0mph
Humidity: 87%   Direction: NA
Pressure: 30.01"   Gusts: NA
Location:  42.63°N, 94.6°W
Report Text: KFOD 301215Z AUTO 00000KT 10SM BKN085 03/01 A3001 RMK AO1
Loading
Personal Weather Stations






























Interactive Weather Map
Tropical Storm Tracking
New forecast layout! Learn more

10-Day Weather Forecast

Advertisements
Track Severe Weather on mobile